Time;durP1;ratioP1;P1;durP2;ratioP2;P2;SDS_P1;SDS_P2;PMS_P1;PMS_P2;Temp;Humidity;BMP_temperature;BMP_pressure;BME280_temperature;BME280_humidity;BME280_pressure;Samples;Min_cycle;Max_cycle;Signal;HPM_P1;HPM_P2
2023/09/01 00:01:42;;;;;;;6.30;3.53;;;16.00;46.40;;;;;;5127464;27;45860;-78
2023/09/01 00:04:07;;;;;;;8.07;3.97;;;16.10;46.60;;;;;;5130273;27;46123;-78
2023/09/01 00:06:33;;;;;;;7.53;3.80;;;16.00;46.50;;;;;;5110603;27;46469;-78
2023/09/01 00:08:58;;;;;;;8.10;4.30;;;16.00;45.70;;;;;;5111428;27;47497;-78
2023/09/01 00:11:24;;;;;;;6.37;4.00;;;16.00;46.60;;;;;;5128482;27;46567;-79
2023/09/01 00:13:49;;;;;;;12.90;4.60;;;16.00;46.90;;;;;;5126727;27;47004;-78
2023/09/01 00:16:15;;;;;;;7.10;4.33;;;15.90;47.40;;;;;;5127859;27;47823;-78
2023/09/01 00:18:40;;;;;;;6.30;4.23;;;15.90;47.70;;;;;;5126982;27;47091;-79
2023/09/01 00:21:06;;;;;;;11.00;5.50;;;15.80;47.20;;;;;;5124543;27;46480;-79
2023/09/01 00:23:33;;;;;;;8.90;5.27;;;15.70;48.50;;;;;;5127284;27;46467;-79
2023/09/01 00:26:00;;;;;;;8.60;5.23;;;15.90;49.30;;;;;;5125704;27;46513;-79
2023/09/01 00:28:26;;;;;;;9.57;5.20;;;15.60;49.70;;;;;;5127234;27;47129;-79
2023/09/01 00:30:58;;;;;;;13.20;5.50;;;15.60;49.40;;;;;;5129029;27;45919;-79
2023/09/01 00:33:27;;;;;;;15.43;5.57;;;15.60;50.50;;;;;;5129019;27;46629;-79
2023/09/01 00:35:54;;;;;;;8.83;4.63;;;15.50;50.70;;;;;;5110602;27;46454;-79
2023/09/01 00:38:20;;;;;;;10.97;5.43;;;15.60;51.00;;;;;;5126066;27;46553;-78
2023/09/01 00:40:49;;;;;;;8.80;5.37;;;15.60;50.20;;;;;;5127674;27;45890;-81
2023/09/01 00:43:15;;;;;;;9.23;4.80;;;15.60;51.10;;;;;;5125778;27;45922;-79
2023/09/01 00:45:41;;;;;;;10.50;5.43;;;15.60;51.30;;;;;;5126376;27;46532;-79
2023/09/01 00:48:08;;;;;;;9.20;5.57;;;15.60;51.10;;;;;;5107698;27;48633;-78
2023/09/01 00:50:36;;;;;;;9.97;5.83;;;15.60;50.30;;;;;;5126284;27;46452;-80
2023/09/01 00:53:04;;;;;;;8.20;5.83;;;15.70;51.50;;;;;;5128135;27;46719;-75
2023/09/01 00:55:30;;;;;;;8.90;5.47;;;15.70;51.60;;;;;;5125867;27;46432;-79
2023/09/01 00:57:56;;;;;;;9.50;6.20;;;15.70;51.50;;;;;;5109557;27;49880;-79
2023/09/01 01:00:21;;;;;;;10.87;5.77;;;15.70;50.80;;;;;;5127207;27;46782;-79
2023/09/01 01:02:48;;;;;;;9.67;5.80;;;15.70;51.90;;;;;;5128628;27;45880;-79
2023/09/01 01:05:15;;;;;;;10.63;5.43;;;15.60;53.40;;;;;;5127763;27;46412;-81
2023/09/01 01:08:06;;;;;;;9.73;5.90;;;15.60;52.80;;;;;;5124488;27;47232;-79
2023/09/01 01:10:51;;;;;;;9.33;5.80;;;15.60;52.70;;;;;;5110618;27;46352;-79
2023/09/01 01:13:21;;;;;;;9.93;6.23;;;15.60;53.80;;;;;;5075916;27;46883;-79
2023/09/01 01:15:50;;;;;;;7.73;5.63;;;15.60;53.70;;;;;;5128803;27;46608;-80
2023/09/01 01:18:18;;;;;;;10.23;6.13;;;15.60;54.10;;;;;;5109373;27;48848;-78
2023/09/01 01:20:46;;;;;;;12.10;6.03;;;15.50;53.80;;;;;;5124617;27;46803;-78
2023/09/01 01:23:16;;;;;;;10.37;6.07;;;15.50;55.20;;;;;;5122850;27;46522;-79
2023/09/01 01:25:52;;;;;;;12.23;6.53;;;15.60;56.30;;;;;;5108877;27;46447;-81
2023/09/01 01:28:19;;;;;;;9.10;5.90;;;15.40;56.60;;;;;;5126835;27;46642;-81
2023/09/01 01:30:47;;;;;;;8.90;5.70;;;15.40;55.50;;;;;;5127348;27;46320;-78
2023/09/01 01:33:38;;;;;;;8.13;5.70;;;15.40;56.70;;;;;;5128180;27;46482;-78
2023/09/01 01:36:07;;;;;;;7.23;5.50;;;15.40;56.60;;;;;;5132139;27;45834;-79
2023/09/01 01:38:36;;;;;;;12.30;5.63;;;15.50;56.70;;;;;;5130941;27;47707;-82
2023/09/01 01:41:12;;;;;;;7.73;5.03;;;15.40;55.70;;;;;;5127158;27;46432;-81
2023/09/01 01:43:41;;;;;;;7.80;5.63;;;15.40;57.40;;;;;;5129961;27;46550;-80
2023/09/01 01:46:06;;;;;;;8.10;5.50;;;15.40;57.70;;;;;;5127063;27;46203;-81
2023/09/01 01:48:37;;;;;;;9.47;5.50;;;15.60;58.10;;;;;;5109751;27;48222;-80
2023/09/01 01:51:05;;;;;;;10.70;5.90;;;15.40;56.80;;;;;;5125785;27;46691;-80
2023/09/01 01:53:37;;;;;;;6.50;5.40;;;15.50;57.70;;;;;;5124619;27;46534;-80
2023/09/01 01:56:03;;;;;;;11.83;5.00;;;15.50;57.70;;;;;;5124701;27;46566;-79
2023/09/01 01:58:30;;;;;;;9.20;5.80;;;15.50;57.60;;;;;;5125095;27;46787;-79
2023/09/01 02:00:55;;;;;;;7.27;5.43;;;15.50;56.80;;;;;;5123193;27;46422;-77
2023/09/01 02:03:21;;;;;;;8.57;4.80;;;15.50;57.80;;;;;;5126104;27;46519;-79
2023/09/01 02:05:47;;;;;;;14.73;5.93;;;15.50;58.20;;;;;;5124646;27;45920;-78
2023/09/01 02:08:12;;;;;;;6.93;4.83;;;15.50;58.50;;;;;;5121509;27;46685;-77
2023/09/01 02:10:38;;;;;;;7.97;5.80;;;15.50;57.60;;;;;;5107255;27;46537;-77
2023/09/01 02:13:04;;;;;;;8.40;4.83;;;15.40;59.00;;;;;;5124540;27;46565;-77
2023/09/01 02:15:30;;;;;;;11.17;4.70;;;15.50;59.30;;;;;;5122858;27;46696;-80
2023/09/01 02:17:57;;;;;;;8.50;4.70;;;15.40;59.70;;;;;;5106131;27;47169;-79
2023/09/01 02:20:23;;;;;;;8.47;5.27;;;15.50;60.00;;;;;;5123719;27;46430;-79
2023/09/01 02:22:50;;;;;;;7.43;4.40;;;15.50;59.90;;;;;;5124258;27;47011;-78
2023/09/01 02:25:16;;;;;;;8.20;4.30;;;15.50;60.00;;;;;;5108780;27;46749;-78
2023/09/01 02:27:43;;;;;;;8.30;3.67;;;15.50;60.00;;;;;;5107098;27;48055;-79
2023/09/01 02:30:10;;;;;;;8.70;3.80;;;15.50;59.40;;;;;;5126441;27;46736;-78
2023/09/01 02:32:40;;;;;;;5.70;3.57;;;15.50;60.20;;;;;;5125189;27;46575;-80
2023/09/01 02:35:08;;;;;;;5.70;3.53;;;15.60;60.30;;;;;;5125500;27;46747;-79
2023/09/01 02:37:34;;;;;;;7.67;3.90;;;15.50;60.30;;;;;;5108620;27;48323;-78
2023/09/01 02:40:00;;;;;;;11.00;3.50;;;15.60;59.40;;;;;;5108734;27;46827;-78
2023/09/01 02:42:26;;;;;;;5.17;3.13;;;15.60;60.30;;;;;;5105748;27;46451;-79
2023/09/01 02:44:52;;;;;;;5.60;3.77;;;15.60;60.10;;;;;;5127351;27;46567;-78
2023/09/01 02:47:17;;;;;;;5.63;3.10;;;15.70;60.10;;;;;;5111013;27;49240;-78
2023/09/01 02:49:43;;;;;;;7.03;3.40;;;15.60;60.00;;;;;;5126853;27;46508;-77
2023/09/01 02:52:08;;;;;;;5.40;3.50;;;15.70;60.00;;;;;;5127160;27;46480;-79
2023/09/01 02:54:34;;;;;;;10.10;2.73;;;15.70;60.00;;;;;;5126947;27;46617;-77
2023/09/01 02:56:59;;;;;;;7.43;3.10;;;15.70;59.80;;;;;;5124972;27;46674;-79
2023/09/01 02:59:25;;;;;;;3.90;2.37;;;15.80;59.70;;;;;;5125789;27;46479;-79
2023/09/01 03:01:50;;;;;;;7.13;2.80;;;15.80;59.60;;;;;;5126172;27;46608;-79
2023/09/01 03:04:16;;;;;;;5.33;2.67;;;15.90;59.30;;;;;;5127838;27;46455;-77
2023/09/01 03:06:42;;;;;;;5.07;3.13;;;15.90;58.90;;;;;;5108563;27;47205;-79
2023/09/01 03:09:10;;;;;;;5.17;2.97;;;15.80;58.00;;;;;;5126941;27;47799;-78
2023/09/01 03:11:35;;;;;;;6.53;2.80;;;15.80;59.00;;;;;;5128314;27;46719;-78
2023/09/01 03:14:01;;;;;;;5.40;2.67;;;15.80;59.00;;;;;;5111613;27;46705;-79
2023/09/01 03:16:30;;;;;;;3.90;2.80;;;15.80;59.10;;;;;;5127969;27;46871;-80
2023/09/01 03:18:59;;;;;;;5.87;2.73;;;14.70;56.90;;;;;;5109206;27;47059;-80
2023/09/01 03:21:30;;;;;;;7.63;3.27;;;15.80;58.90;;;;;;5129626;27;46460;-78
2023/09/01 03:23:57;;;;;;;6.03;3.37;;;15.90;58.90;;;;;;5128909;27;46975;-80
2023/09/01 03:26:23;;;;;;;6.03;2.97;;;15.80;59.00;;;;;;5129599;27;46557;-79
2023/09/01 03:28:50;;;;;;;5.40;3.00;;;15.70;59.00;;;;;;5128043;27;46761;-81
2023/09/01 03:31:15;;;;;;;5.80;3.07;;;15.70;58.10;;;;;;5127579;27;46634;-79
2023/09/01 03:33:41;;;;;;;4.87;2.83;;;15.90;59.30;;;;;;5127531;27;47038;-80
2023/09/01 03:36:08;;;;;;;5.30;2.87;;;15.80;58.80;;;;;;5127944;27;47157;-78
2023/09/01 03:38:34;;;;;;;5.07;2.93;;;15.70;58.80;;;;;;5128962;27;46534;-78
2023/09/01 03:41:06;;;;;;;9.70;3.10;;;15.80;57.50;;;;;;5109240;27;47034;-77
2023/09/01 03:43:35;;;;;;;4.20;2.80;;;15.80;58.30;;;;;;5126547;27;46558;-79
2023/09/01 03:46:02;;;;;;;4.83;2.77;;;15.90;58.00;;;;;;5119337;27;47990;-77
2023/09/01 03:48:28;;;;;;;3.90;2.70;;;15.90;57.80;;;;;;5126992;27;45886;-78
2023/09/01 03:51:14;;;;;;;4.00;2.30;;;15.90;56.70;;;;;;5111718;27;46517;-79
2023/09/01 03:53:40;;;;;;;4.07;2.80;;;15.90;56.50;;;;;;5109860;27;46675;-79
2023/09/01 03:56:16;;;;;;;5.30;3.00;;;16.00;57.50;;;;;;5128053;27;46483;-77
2023/09/01 03:58:42;;;;;;;12.13;2.60;;;16.00;57.20;;;;;;5127127;27;46783;-78
2023/09/01 04:01:08;;;;;;;5.00;2.57;;;16.00;56.10;;;;;;5128394;27;47021;-76
2023/09/01 04:03:44;;;;;;;5.00;2.70;;;16.00;57.20;;;;;;5126947;27;46409;-78
2023/09/01 04:06:10;;;;;;;6.53;2.60;;;16.00;57.20;;;;;;5128725;27;46218;-79
2023/09/01 04:08:37;;;;;;;3.67;2.60;;;15.90;58.50;;;;;;5124744;27;46605;-79
2023/09/01 04:11:03;;;;;;;4.70;2.87;;;15.90;56.30;;;;;;5110113;27;47369;-78
2023/09/01 04:13:31;;;;;;;4.90;2.80;;;15.90;57.50;;;;;;5126645;27;46464;-78
2023/09/01 04:15:57;;;;;;;5.93;2.80;;;15.90;57.60;;;;;;5124405;27;46704;-78
2023/09/01 04:18:24;;;;;;;4.60;2.50;;;15.90;58.20;;;;;;5129367;27;47265;-78
2023/09/01 04:20:51;;;;;;;5.60;2.47;;;15.90;57.10;;;;;;5113770;27;46746;-78
2023/09/01 04:23:17;;;;;;;5.77;3.10;;;15.90;58.20;;;;;;5127489;27;46453;-78
2023/09/01 04:25:49;;;;;;;3.93;2.40;;;15.90;57.90;;;;;;5127487;27;46566;-78
2023/09/01 04:28:15;;;;;;;4.53;2.50;;;15.90;57.60;;;;;;5127920;27;45872;-80
2023/09/01 04:30:43;;;;;;;4.67;2.53;;;15.90;56.60;;;;;;5125983;27;47422;-78
2023/09/01 04:33:09;;;;;;;5.13;2.93;;;15.90;57.70;;;;;;5112289;27;47307;-78
2023/09/01 04:35:34;;;;;;;4.03;2.50;;;15.90;57.70;;;;;;5127837;27;47309;-78
2023/09/01 04:38:01;;;;;;;4.97;2.47;;;15.90;57.70;;;;;;5105854;27;46415;-79
2023/09/01 04:40:26;;;;;;;4.70;2.50;;;15.80;57.70;;;;;;5128550;27;45876;-78
2023/09/01 04:42:53;;;;;;;3.63;2.20;;;15.90;57.80;;;;;;5110089;27;46668;-80
2023/09/01 04:45:19;;;;;;;6.13;2.37;;;15.80;57.60;;;;;;5108246;27;47846;-78
2023/09/01 04:47:44;;;;;;;3.80;2.40;;;15.90;57.80;;;;;;5126633;27;46461;-79
2023/09/01 04:50:10;;;;;;;5.20;2.53;;;15.90;56.30;;;;;;5127580;27;46367;-78
2023/09/01 04:52:36;;;;;;;4.83;2.40;;;15.90;57.20;;;;;;5128486;27;46448;-79
2023/09/01 04:55:03;;;;;;;5.83;2.60;;;16.10;57.30;;;;;;5125169;27;46668;-77
2023/09/01 04:57:30;;;;;;;4.80;2.30;;;16.00;57.20;;;;;;5106040;27;46619;-76
2023/09/01 04:59:55;;;;;;;5.30;2.10;;;16.10;56.20;;;;;;5126410;27;47543;-79
2023/09/01 05:02:21;;;;;;;3.33;2.13;;;16.10;57.30;;;;;;5126317;27;46844;-79
2023/09/01 05:04:47;;;;;;;6.27;2.77;;;16.20;57.30;;;;;;5126461;27;46467;-78
2023/09/01 05:07:12;;;;;;;4.00;2.20;;;16.30;56.40;;;;;;5124867;27;46396;-77
2023/09/01 05:09:38;;;;;;;6.10;2.30;;;16.50;54.80;;;;;;5107918;27;46481;-78
2023/09/01 05:12:04;;;;;;;6.60;2.90;;;16.60;56.00;;;;;;5128028;27;46781;-78
2023/09/01 05:14:29;;;;;;;6.47;2.33;;;16.60;55.50;;;;;;5125644;27;47962;-79
2023/09/01 05:16:56;;;;;;;4.20;2.63;;;16.60;55.20;;;;;;5108162;27;46504;-78
2023/09/01 05:19:22;;;;;;;4.83;2.63;;;16.60;55.00;;;;;;5126159;27;46663;-77
2023/09/01 05:21:48;;;;;;;7.80;2.23;;;16.70;55.10;;;;;;5126833;27;46590;-79
2023/09/01 05:24:14;;;;;;;3.67;2.33;;;16.70;55.10;;;;;;5125462;27;46947;-78
2023/09/01 05:26:39;;;;;;;5.10;2.30;;;16.80;55.00;;;;;;5124478;27;46440;-77
2023/09/01 05:29:05;;;;;;;4.17;2.43;;;16.80;53.70;;;;;;5126571;27;46567;-78
2023/09/01 05:31:30;;;;;;;3.87;2.43;;;16.90;54.90;;;;;;5126542;27;46448;-78
2023/09/01 05:33:56;;;;;;;6.40;2.40;;;16.90;54.90;;;;;;5125561;27;47835;-78
2023/09/01 05:36:21;;;;;;;8.00;3.27;;;16.90;54.90;;;;;;5109873;27;46797;-78
2023/09/01 05:38:47;;;;;;;5.47;3.17;;;16.90;54.90;;;;;;5125279;27;47108;-78
2023/09/01 05:41:14;;;;;;;6.23;3.40;;;16.90;53.80;;;;;;5127116;27;47045;-79
2023/09/01 05:43:39;;;;;;;4.43;2.50;;;17.00;54.90;;;;;;5125284;27;46773;-78
2023/09/01 05:46:05;;;;;;;6.40;3.37;;;;;;;;;;5109663;27;47338;-78
2023/09/01 05:48:31;;;;;;;20.07;10.10;;;17.20;53.10;;;;;;5108015;27;46531;-78
2023/09/01 05:50:57;;;;;;;31.37;26.40;;;17.30;52.50;;;;;;5123385;27;46392;-79
2023/09/01 05:53:22;;;;;;;13.80;10.33;;;17.30;53.30;;;;;;5126608;27;47277;-78
2023/09/01 05:55:48;;;;;;;9.73;7.13;;;17.40;52.90;;;;;;5124439;27;47435;-80
2023/09/01 05:58:14;;;;;;;8.87;6.00;;;17.50;52.30;;;;;;5126499;27;46559;-78
2023/09/01 06:00:40;;;;;;;6.10;4.33;;;17.70;50.60;;;;;;5109842;27;46508;-79
2023/09/01 06:03:06;;;;;;;6.43;4.03;;;17.70;51.50;;;;;;5127436;27;47932;-80
2023/09/01 06:05:31;;;;;;;5.53;3.33;;;17.70;51.30;;;;;;5125836;27;46462;-77
2023/09/01 06:07:57;;;;;;;5.00;3.73;;;17.90;51.10;;;;;;5116268;27;46888;-80
2023/09/01 06:10:22;;;;;;;11.30;4.00;;;17.90;50.50;;;;;;5128360;27;46688;-80
2023/09/01 06:12:48;;;;;;;5.93;3.17;;;18.00;50.20;;;;;;5126268;27;47577;-80
2023/09/01 06:15:13;;;;;;;9.03;2.70;;;18.10;49.90;;;;;;5126441;27;46464;-79
2023/09/01 06:17:39;;;;;;;4.93;2.70;;;18.20;49.20;;;;;;5103265;27;46804;-80
2023/09/01 06:20:06;;;;;;;4.63;2.23;;;18.20;48.80;;;;;;5129266;27;46946;-79
2023/09/01 06:22:34;;;;;;;11.00;3.43;;;18.30;48.40;;;;;;5127450;27;47412;-79
2023/09/01 06:25:01;;;;;;;5.20;2.47;;;18.30;48.00;;;;;;5128182;27;46966;-81
2023/09/01 06:27:26;;;;;;;5.43;2.90;;;18.40;47.70;;;;;;5109938;27;46645;-80
2023/09/01 06:29:55;;;;;;;5.30;2.90;;;18.50;47.30;;;;;;5128672;27;46969;-81
2023/09/01 06:32:20;;;;;;;7.10;3.47;;;18.60;46.40;;;;;;5129218;27;46908;-81
2023/09/01 06:34:46;;;;;;;4.13;2.40;;;18.60;46.40;;;;;;5130531;27;46897;-81
2023/09/01 06:37:11;;;;;;;7.10;3.30;;;18.80;46.60;;;;;;5111891;27;46082;-80
2023/09/01 06:39:37;;;;;;;9.30;4.47;;;18.90;46.20;;;;;;5130247;27;46476;-77
2023/09/01 06:42:03;;;;;;;9.97;5.37;;;19.00;45.40;;;;;;5108498;27;46799;-80
2023/09/01 06:44:28;;;;;;;7.33;3.30;;;19.20;44.90;;;;;;5130510;27;47514;-80
2023/09/01 06:46:54;;;;;;;9.30;5.10;;;19.40;44.60;;;;;;5109788;27;46770;-81
2023/09/01 06:49:20;;;;;;;5.83;3.30;;;19.40;43.70;;;;;;5131010;27;46583;-80
2023/09/01 06:51:45;;;;;;;5.80;3.23;;;19.50;43.50;;;;;;5130768;27;46488;-82
2023/09/01 06:54:11;;;;;;;8.37;4.97;;;19.60;43.00;;;;;;5131916;27;46310;-79
2023/09/01 06:56:36;;;;;;;5.07;2.90;;;19.80;42.60;;;;;;5133809;27;46425;-81
2023/09/01 06:59:02;;;;;;;6.63;2.57;;;19.90;40.60;;;;;;5129956;27;46394;-80
2023/09/01 07:01:30;;;;;;;6.00;3.37;;;19.90;41.60;;;;;;5131746;27;47282;-82
2023/09/01 07:03:55;;;;;;;7.30;2.00;;;20.00;41.30;;;;;;5128330;27;46778;-79
2023/09/01 07:06:21;;;;;;;5.27;3.27;;;20.10;40.80;;;;;;5129832;27;46914;-82
2023/09/01 07:08:47;;;;;;;18.50;10.47;;;20.20;40.50;;;;;;5128861;27;46651;-78
2023/09/01 07:11:14;;;;;;;7.20;3.30;;;20.30;38.60;;;;;;5127481;27;46784;-81
2023/09/01 07:13:40;;;;;;;7.80;4.17;;;20.40;39.30;;;;;;5125083;27;46429;-81
2023/09/01 07:16:06;;;;;;;5.20;2.20;;;20.60;38.70;;;;;;5124606;27;46963;-81
2023/09/01 07:18:32;;;;;;;7.67;2.30;;;20.70;38.30;;;;;;5125963;27;47077;-80
2023/09/01 07:20:59;;;;;;;9.43;2.57;;;20.80;36.40;;;;;;5126629;27;46389;-80
2023/09/01 07:23:25;;;;;;;5.87;2.63;;;21.10;37.30;;;;;;5128562;27;46473;-79
2023/09/01 07:25:53;;;;;;;6.53;2.80;;;21.20;36.30;;;;;;5111650;27;46446;-79
2023/09/01 07:28:18;;;;;;;7.90;2.37;;;21.30;35.60;;;;;;5127448;27;46437;-79
2023/09/01 07:30:44;;;;;;;3.40;1.90;;;21.20;34.10;;;;;;5125384;27;46585;-76
2023/09/01 07:33:10;;;;;;;7.53;3.10;;;21.30;35.40;;;;;;5130472;27;46691;-79
2023/09/01 07:35:35;;;;;;;8.20;3.00;;;21.40;35.30;;;;;;5126711;27;45853;-80
2023/09/01 07:38:03;;;;;;;14.23;7.17;;;21.40;35.30;;;;;;5113737;27;46432;-81
2023/09/01 07:40:32;;;;;;;10.70;6.67;;;21.80;34.30;;;;;;5130178;27;47081;-77
2023/09/01 07:42:58;;;;;;;10.30;4.93;;;22.10;32.10;;;;;;5130809;27;46583;-80
2023/09/01 07:45:24;;;;;;;11.50;3.77;;;22.10;32.50;;;;;;5126465;27;46861;-78
2023/09/01 07:47:49;;;;;;;6.70;2.40;;;21.80;31.60;;;;;;5124730;27;46977;-80
2023/09/01 07:50:15;;;;;;;6.23;3.20;;;21.70;32.40;;;;;;5128099;27;47310;-81
2023/09/01 07:52:41;;;;;;;6.43;2.77;;;21.60;32.50;;;;;;5129228;27;46421;-79
2023/09/01 07:55:06;;;;;;;5.03;2.30;;;21.70;32.30;;;;;;5130641;27;46495;-80
2023/09/01 07:57:32;;;;;;;8.10;2.30;;;21.90;32.00;;;;;;5128526;27;46588;-79
2023/09/01 07:59:58;;;;;;;8.07;2.83;;;22.00;30.10;;;;;;5113904;27;48071;-81
2023/09/01 08:02:23;;;;;;;15.30;9.37;;;22.00;31.20;;;;;;5110528;27;46470;-80
2023/09/01 08:04:49;;;;;;;73.20;31.53;;;22.10;31.00;;;;;;5109210;27;46593;-78
2023/09/01 08:07:14;;;;;;;7.10;3.00;;;22.10;31.10;;;;;;5128111;27;46603;-77
2023/09/01 08:09:41;;;;;;;5.23;2.00;;;22.20;30.40;;;;;;5128081;27;46633;-81
2023/09/01 08:12:06;;;;;;;5.60;2.97;;;22.50;29.90;;;;;;5109079;27;47554;-80
2023/09/01 08:14:32;;;;;;;5.10;2.00;;;22.90;29.30;;;;;;5127161;27;46588;-78
2023/09/01 08:16:58;;;;;;;3.90;2.10;;;23.20;28.70;;;;;;5124157;27;46441;-78
2023/09/01 08:19:23;;;;;;;5.80;2.33;;;23.20;28.30;;;;;;5128040;27;47312;-77
2023/09/01 08:21:49;;;;;;;5.30;2.70;;;23.10;28.30;;;;;;5125765;27;46516;-78
2023/09/01 08:24:14;;;;;;;4.93;2.57;;;23.30;28.40;;;;;;5126041;27;46442;-77
2023/09/01 08:26:40;;;;;;;5.47;2.27;;;23.50;27.90;;;;;;5126174;27;46434;-78
2023/09/01 08:29:06;;;;;;;4.43;1.90;;;23.80;26.20;;;;;;5126775;27;47489;-77
2023/09/01 08:31:32;;;;;;;3.80;2.23;;;23.80;26.90;;;;;;5126090;27;46531;-78
2023/09/01 08:33:58;;;;;;;4.03;2.37;;;23.80;26.30;;;;;;5106221;27;46682;-79
2023/09/01 08:36:24;;;;;;;6.97;2.37;;;23.90;26.10;;;;;;5130135;27;46726;-81
2023/09/01 08:38:50;;;;;;;5.30;2.30;;;23.80;25.60;;;;;;5110882;27;48058;-76
2023/09/01 08:41:16;;;;;;;4.90;2.17;;;23.80;24.30;;;;;;5126530;27;46455;-79
2023/09/01 08:43:44;;;;;;;4.30;2.03;;;23.80;25.50;;;;;;5128723;27;46514;-79
2023/09/01 08:46:11;;;;;;;4.53;2.17;;;23.40;25.40;;;;;;5108508;27;46632;-79
2023/09/01 08:48:37;;;;;;;4.53;1.90;;;23.50;25.20;;;;;;5109786;27;48165;-78
2023/09/01 08:51:05;;;;;;;4.80;2.00;;;23.60;24.10;;;;;;5125928;27;46849;-80
2023/09/01 08:53:31;;;;;;;5.20;2.00;;;23.80;25.10;;;;;;5110759;27;46522;-75
2023/09/01 08:55:57;;;;;;;3.43;1.77;;;23.90;26.10;;;;;;5125714;27;45906;-79
2023/09/01 08:58:23;;;;;;;5.80;2.00;;;23.90;25.00;;;;;;5128375;27;47444;-77
2023/09/01 09:00:49;;;;;;;8.50;2.80;;;23.90;24.50;;;;;;5130720;27;46394;-81
2023/09/01 09:03:16;;;;;;;4.33;2.10;;;24.00;24.30;;;;;;5128425;27;46686;-80
2023/09/01 09:05:44;;;;;;;3.80;1.90;;;24.20;23.70;;;;;;5127545;27;46419;-78
2023/09/01 09:08:11;;;;;;;4.27;2.13;;;24.10;23.60;;;;;;5128516;27;46475;-79
2023/09/01 09:10:42;;;;;;;3.40;1.60;;;24.10;23.30;;;;;;5125795;27;46563;-79
2023/09/01 09:13:27;;;;;;;3.37;1.77;;;24.00;23.20;;;;;;5130762;27;46246;-78
2023/09/01 09:16:12;;;;;;;3.43;1.80;;;23.70;22.90;;;;;;5123056;27;46877;-77
2023/09/01 09:18:41;;;;;;;5.03;1.80;;;23.50;22.50;;;;;;5126094;27;47092;-78
2023/09/01 09:21:25;;;;;;;6.40;1.80;;;23.50;22.80;;;;;;5128547;27;46411;-80
2023/09/01 09:23:52;;;;;;;4.50;1.67;;;23.80;22.40;;;;;;5110273;27;46848;-79
2023/09/01 09:26:27;;;;;;;8.70;1.93;;;23.80;21.90;;;;;;5127796;27;46601;-80
2023/09/01 09:28:53;;;;;;;6.53;2.10;;;23.50;21.00;;;;;;5132835;27;46792;-81
2023/09/01 09:31:37;;;;;;;8.23;2.00;;;23.50;21.50;;;;;;5131585;27;46193;-78
2023/09/01 09:34:19;;;;;;;4.53;1.83;;;23.30;21.00;;;;;;5127833;27;46515;-80
2023/09/01 09:36:46;;;;;;;4.60;2.10;;;23.50;21.30;;;;;;5131573;27;46453;-81
2023/09/01 09:39:32;;;;;;;5.10;2.13;;;24.00;20.50;;;;;;5130308;27;47347;-78
2023/09/01 09:41:58;;;;;;;4.20;1.80;;;23.90;20.00;;;;;;5108035;27;46594;-80
2023/09/01 09:44:31;;;;;;;5.40;1.83;;;23.90;20.90;;;;;;5126704;27;46531;-79
2023/09/01 09:46:57;;;;;;;4.67;1.93;;;23.90;20.80;;;;;;5125765;27;46452;-80
2023/09/01 09:49:23;;;;;;;3.60;1.80;;;23.80;20.10;;;;;;5129181;27;47113;-81
2023/09/01 09:51:51;;;;;;;6.10;1.90;;;23.60;20.70;;;;;;5129378;27;46499;-79
2023/09/01 09:54:21;;;;;;;6.57;2.00;;;23.80;20.90;;;;;;5115841;27;46557;-79
2023/09/01 09:56:49;;;;;;;4.20;1.97;;;23.60;19.90;;;;;;5115483;27;47149;-80
2023/09/01 09:59:17;;;;;;;7.63;2.20;;;23.00;19.10;;;;;;5118696;27;48275;-82
2023/09/01 10:01:45;;;;;;;4.93;1.73;;;23.00;20.20;;;;;;5114894;27;46470;-79
2023/09/01 10:04:11;;;;;;;5.27;2.80;;;22.90;20.50;;;;;;5132752;27;46037;-79
2023/09/01 10:06:37;;;;;;;3.70;1.70;;;22.70;20.90;;;;;;5133999;27;47029;-77
2023/09/01 10:09:07;;;;;;;5.40;1.93;;;22.40;20.70;;;;;;5112842;27;48785;-79
2023/09/01 10:11:33;;;;;;;6.23;1.93;;;22.40;21.50;;;;;;5136339;27;46521;-81
2023/09/01 10:14:00;;;;;;;8.90;1.57;;;22.30;21.80;;;;;;5130464;27;46405;-78
2023/09/01 10:16:26;;;;;;;4.37;2.00;;;22.20;22.20;;;;;;5132255;27;46138;-80
2023/09/01 10:18:52;;;;;;;4.00;1.77;;;22.20;22.60;;;;;;5131116;27;47077;-78
2023/09/01 10:21:20;;;;;;;5.60;1.87;;;22.40;22.70;;;;;;5110045;27;46863;-81
2023/09/01 10:23:46;;;;;;;8.93;1.90;;;22.40;22.20;;;;;;5130857;27;45768;-79
2023/09/01 10:26:28;;;;;;;5.77;2.00;;;22.40;22.30;;;;;;5135504;27;46488;-77
2023/09/01 10:29:01;;;;;;;4.73;1.93;;;22.80;21.40;;;;;;5121056;27;47740;-77
2023/09/01 10:31:28;;;;;;;8.83;2.20;;;22.80;22.30;;;;;;5125171;27;46597;-79
2023/09/01 10:34:09;;;;;;;5.53;1.70;;;23.20;21.40;;;;;;5117246;27;46536;-80
2023/09/01 10:36:37;;;;;;;4.83;1.80;;;23.50;21.90;;;;;;5133342;27;46494;-78
2023/09/01 10:39:23;;;;;;;7.07;2.10;;;23.80;20.50;;;;;;5117264;27;48524;-77
2023/09/01 10:42:08;;;;;;;4.77;1.97;;;23.80;21.10;;;;;;5131701;27;46496;-80
2023/09/01 10:44:40;;;;;;;4.40;2.03;;;23.80;20.00;;;;;;5112451;27;46642;-80
2023/09/01 10:47:30;;;;;;;9.73;2.00;;;23.90;20.80;;;;;;5111932;27;46519;-81
2023/09/01 10:50:01;;;;;;;3.90;1.60;;;24.00;20.90;;;;;;5131151;27;47246;-78
2023/09/01 10:52:28;;;;;;;3.83;1.67;;;24.20;20.80;;;;;;5121216;27;47906;-76
2023/09/01 10:54:59;;;;;;;4.87;1.80;;;24.40;20.60;;;;;;5130373;27;46713;-76
2023/09/01 10:57:37;;;;;;;14.97;2.43;;;24.60;20.10;;;;;;5132132;27;46502;-75
2023/09/01 11:00:26;;;;;;;5.10;1.93;;;24.70;19.90;;;;;;5132296;27;46566;-76
2023/09/01 11:02:53;;;;;;;4.83;1.50;;;24.80;19.30;;;;;;5116911;27;46545;-76
2023/09/01 11:05:37;;;;;;;7.77;1.87;;;24.80;19.50;;;;;;5129502;27;45845;-76
2023/09/01 11:08:15;;;;;;;4.90;1.90;;;24.70;19.30;;;;;;5119226;27;46539;-77
2023/09/01 11:10:41;;;;;;;4.00;2.00;;;24.60;19.30;;;;;;5115352;27;49091;-76
2023/09/01 11:13:18;;;;;;;6.70;2.00;;;24.30;19.10;;;;;;5129807;27;46553;-77
2023/09/01 11:15:49;;;;;;;8.00;1.80;;;24.10;18.00;;;;;;5113898;27;46514;-76
2023/09/01 11:18:16;;;;;;;4.77;1.80;;;23.70;18.60;;;;;;5130794;27;46515;-74
2023/09/01 11:20:42;;;;;;;6.10;1.80;;;23.60;18.80;;;;;;5111455;27;48500;-76
2023/09/01 11:23:09;;;;;;;5.30;1.97;;;23.70;17.80;;;;;;5132139;27;46447;-76
2023/09/01 11:25:35;;;;;;;4.00;1.57;;;23.70;18.70;;;;;;5132960;27;46473;-77
2023/09/01 11:28:01;;;;;;;4.20;1.53;;;23.80;19.30;;;;;;5118518;27;46490;-77
2023/09/01 11:30:26;;;;;;;5.17;2.00;;;24.10;19.00;;;;;;5112120;27;48469;-77
2023/09/01 11:32:52;;;;;;;4.87;1.70;;;24.00;18.40;;;;;;5113173;27;46883;-77
2023/09/01 11:35:26;;;;;;;3.63;1.70;;;23.90;18.90;;;;;;5129076;27;47363;-78
2023/09/01 11:37:52;;;;;;;4.17;1.80;;;24.10;19.00;;;;;;5108950;27;46625;-77
2023/09/01 11:40:17;;;;;;;4.07;1.90;;;24.30;19.00;;;;;;5108922;27;47843;-77
2023/09/01 11:42:45;;;;;;;5.93;2.03;;;24.40;19.00;;;;;;5132837;27;46551;-77
2023/09/01 11:45:11;;;;;;;4.53;2.20;;;24.40;18.80;;;;;;5129762;27;46430;-78
2023/09/01 11:47:37;;;;;;;4.83;1.90;;;24.60;18.60;;;;;;5130355;27;46672;-78
2023/09/01 11:50:03;;;;;;;3.07;1.43;;;24.80;18.50;;;;;;5130839;27;46935;-79
2023/09/01 11:52:29;;;;;;;5.03;1.80;;;25.10;17.90;;;;;;5114779;27;47019;-77
2023/09/01 11:54:56;;;;;;;3.57;1.80;;;25.00;17.80;;;;;;5131790;27;46385;-78
2023/09/01 11:57:22;;;;;;;5.50;1.97;;;24.60;17.50;;;;;;5128035;27;46778;-77
2023/09/01 11:59:48;;;;;;;4.17;1.63;;;24.80;17.90;;;;;;5109212;27;47053;-77
2023/09/01 12:02:16;;;;;;;5.60;1.83;;;24.90;17.50;;;;;;5128189;27;46482;-77
2023/09/01 12:04:46;;;;;;;8.53;1.97;;;24.70;17.50;;;;;;5129060;27;46460;-80
2023/09/01 12:07:25;;;;;;;5.50;2.30;;;24.70;16.90;;;;;;5116501;27;46807;-78
2023/09/01 12:09:52;;;;;;;3.63;1.53;;;24.60;16.40;;;;;;5127244;27;46679;-76
2023/09/01 12:12:18;;;;;;;6.00;1.43;;;24.60;17.50;;;;;;5111058;27;46515;-80
2023/09/01 12:14:43;;;;;;;10.33;1.73;;;24.80;17.50;;;;;;5129512;27;46487;-78
2023/09/01 12:17:20;;;;;;;5.50;1.77;;;25.00;17.20;;;;;;5106326;27;46487;-78
2023/09/01 12:19:46;;;;;;;3.57;1.40;;;24.90;15.90;;;;;;5121647;27;47535;-77
2023/09/01 12:22:12;;;;;;;5.13;1.60;;;24.90;17.00;;;;;;5127762;27;46881;-78
2023/09/01 12:24:38;;;;;;;3.50;1.63;;;24.50;17.20;;;;;;5125864;27;46480;-79
2023/09/01 12:27:05;;;;;;;3.37;1.80;;;24.50;17.80;;;;;;5108939;27;46675;-77
2023/09/01 12:29:31;;;;;;;4.47;1.80;;;24.50;17.50;;;;;;5107466;27;48822;-79
2023/09/01 12:31:56;;;;;;;3.67;1.60;;;24.30;17.20;;;;;;5112190;27;46615;-77
2023/09/01 12:34:22;;;;;;;5.90;1.60;;;24.40;17.30;;;;;;5126090;27;46502;-78
2023/09/01 12:36:49;;;;;;;3.40;1.57;;;24.70;17.00;;;;;;5127579;27;46781;-78
2023/09/01 12:39:14;;;;;;;4.53;1.50;;;25.00;16.30;;;;;;5106534;27;48228;-79
2023/09/01 12:41:40;;;;;;;2.93;1.40;;;25.00;17.10;;;;;;5128986;27;46502;-80
2023/09/01 12:44:06;;;;;;;5.87;1.90;;;;;;;;;;5131309;27;46555;-78
2023/09/01 12:46:32;;;;;;;4.80;1.40;;;25.20;15.70;;;;;;5133123;27;46765;-78
2023/09/01 12:48:57;;;;;;;4.00;1.80;;;25.00;17.00;;;;;;5117969;27;47976;-78